Hovedside
METAR-TAF:

METAR-TAF

Lufthavner :

Katherine, Australia

breddegrad: 14-26S, lengdegrad: 132-16E, høyde over havet: 108 m

Gjeldene værobservasjon

Denne rapporten ble laget for 36 minutter siden, klokken 01:30 UTC
Vind 10 kt fra Øst-sørøst
Temperatur 25°C
Luftfuktighet 32%
Trykk 1019 hPa
Sikt 10 km eller mer

METAR: YPTN 220130Z AUTO 11010KT 9999 // NCD 25/07 Q1019 RF00.0/000.0

Tid: 11:36 (02:06 UTC)

Varsel

Denne rapporten ble laget for 3 timer og 0 minutter siden, klokken 23:06 UTC
Varsel gyldig fra 22. klokken 00 UTC til 23. klokken 00 UTC
Vind 15 kt fra Øst-sørøst med vindkast opp mot 25 kt
Sikt 10 km eller mer
ingen skyer under 1500 m og ingen bygeskyer
Fra 22. klokken 0400 UTC
Vind 14 kt fra Øst-sørøst
Sikt 10 km eller mer
ingen skyer under 1500 m og ingen bygeskyer
Fra 22. klokken 0900 UTC
Vind 5 kt fra Sør-sørøst
Sikt 10 km eller mer
ingen skyer under 1500 m og ingen bygeskyer

TAF: YPTN 212306Z 2200/2300 12015G25KT CAVOK FM220400 12014KT CAVOK FM220900 15005KT CAVOK

Værobservasjoner og værvarsel for over 4000 flyplasser (METAR- og TAF-rapporter).

Tilgjengelige stasjoner er representert av de røde og gule prikkene på kartet.

Hold musepekeren over prikken for å se navnet på stasjonen.

Klikk så for å se værobservasjoner og -varsler.

For å forandre kartet kan du klikke på den grønne knappen med svart kryss for å zoome inn, på den grønne knappen med strek for å zoome ut, eller på de grønne pilene for å se tilstøtende kart.


METAR-TAF: